createdAt,value
2023-07-23T00:01:12.000Z,51.9
2023-07-23T00:02:29.415Z,51.9
2023-07-23T00:03:46.500Z,51.9
2023-07-23T00:05:03.588Z,51.9
2023-07-23T00:06:20.669Z,51.9
2023-07-23T00:07:37.749Z,51.9
2023-07-23T00:08:54.000Z,51.9
2023-07-23T00:10:11.906Z,51.9
2023-07-23T00:11:28.970Z,51.9
2023-07-23T00:12:46.000Z,51.9
2023-07-23T00:14:03.000Z,51.8
2023-07-23T00:15:20.000Z,51.9
2023-07-23T00:16:36.824Z,51.8
2023-07-23T00:17:54.327Z,51.8
2023-07-23T00:19:10.971Z,51.6
2023-07-23T00:20:28.000Z,51.7
2023-07-23T00:21:45.546Z,51.6
2023-07-23T00:23:02.617Z,51.7
2023-07-23T00:24:19.692Z,51.6
2023-07-23T00:25:36.760Z,51.6
2023-07-23T00:26:53.834Z,51.7
2023-07-23T00:28:10.913Z,51.6
2023-07-23T00:29:27.552Z,51.4
2023-07-23T00:30:44.089Z,51.7
2023-07-23T00:32:01.170Z,51.6
2023-07-23T00:33:17.817Z,51.9
2023-07-23T00:34:35.323Z,51.7
2023-07-23T00:35:52.407Z,51.8
2023-07-23T00:37:09.491Z,51.8
2023-07-23T00:38:26.578Z,51.6
2023-07-23T00:39:43.238Z,51.5
2023-07-23T00:41:00.763Z,51.6
2023-07-23T00:42:17.420Z,51.6
2023-07-23T00:43:34.933Z,51.6
2023-07-23T00:44:52.021Z,51.6
2023-07-23T00:46:08.686Z,51.7
2023-07-23T00:47:26.203Z,51.8
2023-07-23T00:48:43.280Z,51.8
2023-07-23T00:50:00.362Z,51.7
2023-07-23T00:51:17.442Z,51.5
2023-07-23T00:52:34.521Z,51.4
2023-07-23T00:53:51.000Z,51.4
2023-07-23T00:55:08.000Z,51.4
2023-07-23T00:56:25.761Z,51.4
2023-07-23T00:57:42.407Z,51.4
2023-07-23T00:58:59.000Z,51.5
2023-07-23T01:00:17.000Z,51.5
2023-07-23T01:01:34.083Z,51.4
2023-07-23T01:02:51.243Z,51.4
2023-07-23T01:04:07.402Z,51.6
2023-07-23T01:05:24.476Z,51.6
2023-07-23T01:06:41.555Z,51.7
2023-07-23T01:07:58.639Z,51.6
2023-07-23T01:09:15.000Z,51.6
2023-07-23T01:10:32.812Z,51.7
2023-07-23T01:11:49.898Z,51.6
2023-07-23T01:13:06.556Z,51.6
2023-07-23T01:14:24.074Z,51.6
2023-07-23T01:15:41.155Z,51.5
2023-07-23T01:16:58.240Z,51.5
2023-07-23T01:18:15.319Z,51.5
2023-07-23T01:19:32.401Z,51.5
2023-07-23T01:20:49.491Z,51.5
2023-07-23T01:22:06.570Z,51.4
2023-07-23T01:23:23.651Z,51.5
2023-07-23T01:24:40.736Z,51.4
2023-07-23T01:25:57.824Z,51.5
2023-07-23T01:27:14.919Z,51.5
2023-07-23T01:28:31.568Z,51.4
2023-07-23T01:29:48.652Z,51.3
2023-07-23T01:31:05.743Z,51.2
2023-07-23T01:32:22.837Z,51.3
2023-07-23T01:33:40.361Z,51.3
2023-07-23T01:34:57.447Z,51.5
2023-07-23T01:36:14.608Z,51.4
2023-07-23T01:37:30.000Z,51.5
2023-07-23T01:38:47.859Z,51.5
2023-07-23T01:40:05.000Z,51.4
2023-07-23T01:41:22.035Z,51.5
2023-07-23T01:42:37.717Z,51.4
2023-07-23T01:43:54.809Z,51.3
2023-07-23T01:45:12.339Z,51.2
2023-07-23T01:46:29.425Z,51.2
2023-07-23T01:47:46.516Z,51.3
2023-07-23T01:49:03.605Z,51.4
2023-07-23T01:50:19.727Z,51.5
2023-07-23T01:51:36.000Z,51.4
2023-07-23T01:52:52.956Z,51.2
2023-07-23T01:54:09.000Z,51.5
2023-07-23T01:55:26.000Z,51.5
2023-07-23T01:56:43.261Z,51.4
2023-07-23T01:58:00.357Z,51.5
2023-07-23T01:59:17.450Z,51.4
2023-07-23T02:00:34.000Z,51.3
2023-07-23T02:01:51.643Z,51.4
2023-07-23T02:03:08.000Z,51.3
2023-07-23T02:04:25.817Z,51.2
2023-07-23T02:05:42.909Z,51.2
2023-07-23T02:07:00.008Z,51.3
2023-07-23T02:08:16.685Z,51.4
2023-07-23T02:09:34.188Z,51.4
2023-07-23T02:10:50.305Z,51.3
2023-07-23T02:12:07.000Z,51.4
2023-07-23T02:13:24.505Z,51.5
2023-07-23T02:14:41.000Z,51.4
2023-07-23T02:15:58.686Z,51.4
2023-07-23T02:17:15.371Z,51.4
2023-07-23T02:18:32.000Z,51.4
2023-07-23T02:19:49.978Z,51.5
2023-07-23T02:21:06.660Z,51.5
2023-07-23T02:22:24.000Z,51.4
2023-07-23T02:23:40.843Z,51.4
2023-07-23T02:24:58.349Z,51.4
2023-07-23T02:26:15.000Z,51.4
2023-07-23T02:27:32.658Z,51.4
2023-07-23T02:28:49.748Z,51.5
2023-07-23T02:30:06.841Z,51.6
2023-07-23T02:31:23.929Z,51.6
2023-07-23T02:32:40.623Z,51.7
2023-07-23T02:33:58.000Z,51.7
2023-07-23T02:35:14.806Z,51.7
2023-07-23T02:36:31.898Z,51.8
2023-07-23T02:37:49.000Z,51.8
2023-07-23T02:39:06.495Z,51.7
2023-07-23T02:40:23.000Z,51.6
2023-07-23T02:41:40.678Z,51.6
2023-07-23T02:42:57.771Z,51.6
2023-07-23T02:44:13.883Z,51.5
2023-07-23T02:45:30.969Z,51.5
2023-07-23T02:46:48.000Z,51.5
2023-07-23T02:48:05.000Z,51.4
2023-07-23T02:49:22.242Z,51.5
2023-07-23T02:50:39.319Z,51.5
2023-07-23T02:51:56.405Z,51.5
2023-07-23T02:53:13.077Z,51.5
2023-07-23T02:54:30.161Z,51.5
2023-07-23T02:55:47.242Z,51.5
2023-07-23T02:57:04.736Z,51.5
2023-07-23T02:58:21.817Z,51.5
2023-07-23T02:59:38.907Z,51.7
2023-07-23T03:00:55.574Z,51.7
2023-07-23T03:02:13.097Z,51.7
2023-07-23T03:03:30.310Z,51.6
2023-07-23T03:04:47.406Z,51.8
2023-07-23T03:06:04.505Z,51.7
2023-07-23T03:07:21.592Z,51.7
2023-07-23T03:08:38.681Z,51.7
2023-07-23T03:09:55.315Z,51.7
2023-07-23T03:11:12.862Z,51.8
2023-07-23T03:12:29.954Z,51.8
2023-07-23T03:13:47.048Z,51.7
2023-07-23T03:15:04.000Z,51.7
2023-07-23T03:16:21.000Z,51.7
2023-07-23T03:17:38.328Z,51.8
2023-07-23T03:18:55.415Z,51.7
2023-07-23T03:20:12.508Z,51.7
2023-07-23T03:21:29.611Z,51.6
2023-07-23T03:22:46.697Z,51.6
2023-07-23T03:24:03.337Z,51.7
2023-07-23T03:25:20.886Z,51.7
2023-07-23T03:26:37.000Z,51.7
2023-07-23T03:27:53.640Z,51.7
2023-07-23T03:29:11.000Z,51.7
2023-07-23T03:30:28.000Z,51.6
2023-07-23T03:31:45.376Z,51.5
2023-07-23T03:33:02.000Z,51.6
2023-07-23T03:34:19.107Z,51.6
2023-07-23T03:35:36.649Z,51.5
2023-07-23T03:36:53.747Z,51.4
2023-07-23T03:38:10.842Z,51.5
2023-07-23T03:39:27.000Z,51.4
2023-07-23T03:40:45.026Z,51.8
2023-07-23T03:42:02.109Z,51.8
2023-07-23T03:43:18.757Z,51.8
2023-07-23T03:44:36.293Z,51.8
2023-07-23T03:45:52.931Z,51.9
2023-07-23T03:47:09.493Z,52.1
2023-07-23T03:48:26.585Z,52.3
2023-07-23T03:49:43.676Z,52.4
2023-07-23T03:51:00.767Z,52.5
2023-07-23T03:52:17.853Z,52.5
2023-07-23T03:53:35.000Z,52.4
2023-07-23T03:54:52.044Z,52.6
2023-07-23T03:56:08.684Z,52.5
2023-07-23T03:57:26.235Z,52.5
2023-07-23T03:58:43.334Z,52.4
2023-07-23T03:59:59.965Z,52.3
2023-07-23T04:01:17.000Z,52.1
2023-07-23T04:02:34.600Z,52.1
2023-07-23T04:03:51.692Z,52
2023-07-23T04:05:08.787Z,52.1
2023-07-23T04:06:25.880Z,52.1
2023-07-23T04:07:41.543Z,52.1
2023-07-23T04:08:59.000Z,52.2
2023-07-23T04:10:16.179Z,52.2
2023-07-23T04:11:32.818Z,52.1
2023-07-23T04:12:50.000Z,51.9
2023-07-23T04:14:07.446Z,52
2023-07-23T04:15:24.544Z,52.2
2023-07-23T04:16:41.189Z,52.2
2023-07-23T04:17:58.000Z,52.4
2023-07-23T04:19:15.000Z,52.5
2023-07-23T04:20:32.931Z,52.5
2023-07-23T04:21:50.019Z,52.6
2023-07-23T04:23:07.000Z,52.6
2023-07-23T04:24:23.755Z,52.7
2023-07-23T04:25:41.293Z,52.8
2023-07-23T04:26:58.394Z,52.8
2023-07-23T04:28:15.487Z,52.8
2023-07-23T04:29:32.000Z,52.9
2023-07-23T04:30:48.255Z,52.9
2023-07-23T04:32:05.799Z,53.1
2023-07-23T04:33:22.912Z,53.1
2023-07-23T04:34:40.007Z,53.1
2023-07-23T04:35:57.000Z,53.2
2023-07-23T04:37:14.000Z,53.1
2023-07-23T04:38:31.315Z,53.1
2023-07-23T04:39:48.000Z,53
2023-07-23T04:41:05.517Z,52.9
2023-07-23T04:42:22.000Z,52.9
2023-07-23T04:43:39.715Z,52.9
2023-07-23T04:44:56.804Z,52.7
2023-07-23T04:46:13.909Z,52.7
2023-07-23T04:47:30.025Z,52.7
2023-07-23T04:48:46.674Z,52.8
2023-07-23T04:50:04.224Z,52.9
2023-07-23T04:51:21.329Z,53
2023-07-23T04:52:37.968Z,53
2023-07-23T04:53:55.521Z,52.8
2023-07-23T04:55:12.158Z,52.8
2023-07-23T04:56:29.249Z,52.7
2023-07-23T04:57:46.345Z,52.8
2023-07-23T04:59:03.893Z,52.9
2023-07-23T05:00:20.996Z,52.9
2023-07-23T05:01:38.096Z,52.7
2023-07-23T05:02:55.000Z,52.8
2023-07-23T05:04:12.294Z,52.8
2023-07-23T05:05:29.390Z,52.9
2023-07-23T05:06:45.507Z,52.9
2023-07-23T05:08:02.599Z,52.9
2023-07-23T05:09:19.000Z,52.9
2023-07-23T05:10:36.800Z,52.9
2023-07-23T05:11:53.000Z,53
2023-07-23T05:13:10.996Z,52.9
2023-07-23T05:14:28.000Z,53
2023-07-23T05:15:45.000Z,53
2023-07-23T05:17:02.311Z,53
2023-07-23T05:18:18.956Z,53.1
2023-07-23T05:19:36.514Z,53
2023-07-23T05:20:53.000Z,53
2023-07-23T05:22:10.242Z,53.2
2023-07-23T05:23:26.832Z,53.4
2023-07-23T05:24:43.000Z,53.2
2023-07-23T05:26:01.000Z,53
2023-07-23T05:27:18.116Z,53
2023-07-23T05:28:35.000Z,53.2
2023-07-23T05:29:52.314Z,53.3
2023-07-23T05:31:08.950Z,53.4
2023-07-23T05:32:26.517Z,53.5
2023-07-23T05:33:43.627Z,53.5
2023-07-23T05:35:00.716Z,53.6
2023-07-23T05:36:17.000Z,53.5
2023-07-23T05:37:34.455Z,53.6
2023-07-23T05:38:52.000Z,53.5
2023-07-23T05:40:08.000Z,53.5
2023-07-23T05:41:24.782Z,53.6
2023-07-23T05:42:42.351Z,53.6
2023-07-23T05:43:59.000Z,53.8
2023-07-23T05:45:16.547Z,53.9
2023-07-23T05:46:33.646Z,54
2023-07-23T05:47:50.746Z,53.9
2023-07-23T05:49:07.848Z,54
2023-07-23T05:50:25.000Z,54.1
2023-07-23T05:51:42.000Z,54.2
2023-07-23T05:52:59.000Z,54.4
2023-07-23T05:54:16.277Z,54.4
2023-07-23T05:55:33.376Z,54.3
2023-07-23T05:56:50.007Z,54.3
2023-07-23T05:58:06.598Z,54.3
2023-07-23T05:59:23.705Z,54.3
2023-07-23T06:00:40.804Z,54.3
2023-07-23T06:01:57.896Z,54.4
2023-07-23T06:03:14.986Z,54.3
2023-07-23T06:04:32.000Z,54.4
2023-07-23T06:05:49.169Z,54.3
2023-07-23T06:07:06.257Z,54.4
2023-07-23T06:08:23.360Z,54.4
2023-07-23T06:09:40.454Z,54.4
2023-07-23T06:10:57.000Z,54.5
2023-07-23T06:12:14.662Z,54.6
2023-07-23T06:13:31.762Z,54.7
2023-07-23T06:14:47.880Z,54.7
2023-07-23T06:16:04.973Z,54.7
2023-07-23T06:17:22.000Z,54.7
2023-07-23T06:18:39.000Z,54.8
2023-07-23T06:19:56.000Z,54.7
2023-07-23T06:21:13.364Z,54.8
2023-07-23T06:22:30.460Z,54.8
2023-07-23T06:23:47.569Z,54.7
2023-07-23T06:25:04.665Z,54.8
2023-07-23T06:26:21.758Z,54.8
2023-07-23T06:27:38.853Z,54.8
2023-07-23T06:28:55.526Z,54.8
2023-07-23T06:30:13.044Z,54.9
2023-07-23T06:31:29.000Z,55
2023-07-23T06:32:46.253Z,55.1
2023-07-23T06:34:03.339Z,55.1
2023-07-23T06:35:20.440Z,55.1
2023-07-23T06:36:37.534Z,55.2
2023-07-23T06:37:54.631Z,55.4
2023-07-23T06:39:11.725Z,55.4
2023-07-23T06:40:28.000Z,55.4
2023-07-23T06:41:45.909Z,55.6
2023-07-23T06:43:03.008Z,55.6
2023-07-23T06:44:20.000Z,55.5
2023-07-23T06:45:37.207Z,55.5
2023-07-23T06:46:54.300Z,55.5
2023-07-23T06:48:11.000Z,55.5
2023-07-23T06:49:27.505Z,55.4
2023-07-23T06:50:44.610Z,55.5
2023-07-23T06:52:01.694Z,55.6
2023-07-23T06:53:18.786Z,55.6
2023-07-23T06:54:35.882Z,55.5
2023-07-23T06:55:52.977Z,55.7
2023-07-23T06:57:10.071Z,55.7
2023-07-23T06:58:27.000Z,55.7
2023-07-23T06:59:44.261Z,55.7
2023-07-23T07:01:01.350Z,55.8
2023-07-23T07:02:18.448Z,55.8
2023-07-23T07:03:35.124Z,55.6
2023-07-23T07:04:52.000Z,55.4
2023-07-23T07:06:09.000Z,55.4
2023-07-23T07:07:26.849Z,55.5
2023-07-23T07:08:42.964Z,55.4
2023-07-23T07:10:00.061Z,55.3
2023-07-23T07:11:17.163Z,55.2
2023-07-23T07:12:33.828Z,55
2023-07-23T07:13:50.927Z,54.9
2023-07-23T07:15:08.458Z,54.8
2023-07-23T07:16:25.000Z,54.7
2023-07-23T07:17:42.657Z,54.7
2023-07-23T07:18:59.000Z,54.7
2023-07-23T07:20:16.854Z,54.6
2023-07-23T07:21:33.961Z,54.5
2023-07-23T07:22:51.000Z,54.4
2023-07-23T07:24:08.158Z,54.4
2023-07-23T07:25:25.252Z,54.3
2023-07-23T07:26:41.371Z,54.2
2023-07-23T07:27:58.471Z,54.3
2023-07-23T07:29:15.560Z,54.2
2023-07-23T07:30:32.651Z,54.3
2023-07-23T07:31:49.746Z,54.3
2023-07-23T07:33:06.846Z,54.4
2023-07-23T07:34:23.934Z,54.4
2023-07-23T07:35:41.000Z,54.4
2023-07-23T07:36:58.000Z,54.5
2023-07-23T07:38:15.223Z,54.4
2023-07-23T07:39:32.325Z,54.4
2023-07-23T07:40:49.418Z,54.3
2023-07-23T07:42:06.509Z,54.4
2023-07-23T07:43:23.000Z,54.5
2023-07-23T07:44:40.259Z,54.5
2023-07-23T07:45:57.789Z,54.5
2023-07-23T07:47:14.877Z,54.5
2023-07-23T07:48:31.974Z,54.5
2023-07-23T07:49:48.627Z,54.8
2023-07-23T07:51:04.736Z,54.6
2023-07-23T07:52:22.263Z,54.6
2023-07-23T07:53:39.351Z,54.6
2023-07-23T07:54:56.439Z,54.7
2023-07-23T07:56:13.528Z,54.6
2023-07-23T07:57:30.617Z,54.6
2023-07-23T07:58:47.270Z,54.7
2023-07-23T08:00:04.000Z,54.7
2023-07-23T08:01:21.889Z,54.7
2023-07-23T08:02:38.983Z,54.9
2023-07-23T08:03:56.079Z,54.7
2023-07-23T08:05:13.000Z,54.7
2023-07-23T08:06:29.816Z,54.8
2023-07-23T08:07:47.357Z,54.7
2023-07-23T08:09:04.578Z,54.7
2023-07-23T08:10:21.671Z,54.7
2023-07-23T08:11:38.752Z,54.9
2023-07-23T08:12:55.000Z,54.9
2023-07-23T08:14:12.944Z,55
2023-07-23T08:15:30.000Z,55.1
2023-07-23T08:16:47.000Z,54.9
2023-07-23T08:18:03.761Z,54.9
2023-07-23T08:19:21.302Z,55
2023-07-23T08:20:38.000Z,54.8
2023-07-23T08:21:55.491Z,54.9
2023-07-23T08:23:12.577Z,54.9
2023-07-23T08:24:29.000Z,54.9
2023-07-23T08:25:46.309Z,54.7
2023-07-23T08:27:03.851Z,54.9
2023-07-23T08:28:21.000Z,54.8
2023-07-23T08:29:37.571Z,54.8
2023-07-23T08:30:54.658Z,55
2023-07-23T08:32:12.000Z,54.9
2023-07-23T08:33:29.292Z,55.1
2023-07-23T08:34:45.933Z,54.9
2023-07-23T08:36:02.000Z,54.8
2023-07-23T08:37:19.578Z,54.8
2023-07-23T08:38:36.665Z,54.8
2023-07-23T08:39:53.759Z,54.7
2023-07-23T08:41:10.849Z,54.7
2023-07-23T08:42:28.000Z,54.6
2023-07-23T08:43:45.025Z,54.6
2023-07-23T08:45:02.000Z,54.5
2023-07-23T08:46:18.747Z,54.2
2023-07-23T08:47:36.287Z,54.2
2023-07-23T08:48:53.000Z,54.3
2023-07-23T08:50:10.476Z,54.3
2023-07-23T08:51:27.000Z,54
2023-07-23T08:52:44.664Z,54
2023-07-23T08:54:01.000Z,54
2023-07-23T08:55:18.844Z,54.2
2023-07-23T08:56:34.948Z,54.2
2023-07-23T08:57:52.000Z,54.1
2023-07-23T08:59:09.125Z,54.1
2023-07-23T09:00:26.000Z,54.2
2023-07-23T09:01:43.301Z,54.2
2023-07-23T09:03:00.373Z,54.3
2023-07-23T09:04:17.447Z,54.3
2023-07-23T09:05:34.537Z,54.3
2023-07-23T09:06:51.619Z,54.4
2023-07-23T09:08:08.303Z,54.4
2023-07-23T09:09:25.802Z,54.5
2023-07-23T09:10:43.000Z,54.6
2023-07-23T09:12:00.000Z,54.7
2023-07-23T09:13:17.000Z,55.1
2023-07-23T09:14:34.164Z,55.3
2023-07-23T09:15:51.245Z,55.5
2023-07-23T09:17:08.338Z,55.3
2023-07-23T09:18:25.430Z,55.1
2023-07-23T09:19:42.517Z,55.1
2023-07-23T09:20:59.607Z,55.4
2023-07-23T09:22:16.695Z,55.5
2023-07-23T09:23:33.787Z,55.5
2023-07-23T09:24:50.882Z,55.5
2023-07-23T09:26:06.997Z,55.6
2023-07-23T09:27:23.684Z,55.6
2023-07-23T09:28:41.000Z,55.9
2023-07-23T09:29:58.266Z,56
2023-07-23T09:31:15.344Z,55.9
2023-07-23T09:32:32.027Z,56
2023-07-23T09:33:49.508Z,56
2023-07-23T09:35:06.586Z,56.1
2023-07-23T09:36:23.664Z,55.8
2023-07-23T09:37:40.749Z,55.9
2023-07-23T09:38:57.833Z,56
2023-07-23T09:40:15.000Z,55.9
2023-07-23T09:41:32.000Z,55.7
2023-07-23T09:42:48.663Z,55.6
2023-07-23T09:44:05.744Z,55.7
2023-07-23T09:45:23.224Z,55.8
2023-07-23T09:46:40.304Z,55.8
2023-07-23T09:47:57.000Z,55.6
2023-07-23T09:49:14.000Z,55.8
2023-07-23T09:50:31.562Z,55.7
2023-07-23T09:51:48.642Z,55.5
2023-07-23T09:53:05.312Z,55.5
2023-07-23T09:54:22.808Z,55.6
2023-07-23T09:55:39.477Z,55.6
2023-07-23T09:56:57.000Z,55.6
2023-07-23T09:58:14.045Z,55.5
2023-07-23T09:59:31.129Z,55.3
2023-07-23T10:00:47.798Z,55.3
2023-07-23T10:02:05.000Z,55.3
2023-07-23T10:03:21.390Z,55.4
2023-07-23T10:04:38.466Z,55.4
2023-07-23T10:05:55.553Z,55.4
2023-07-23T10:07:12.636Z,55.3
2023-07-23T10:08:29.000Z,55.1
2023-07-23T10:09:46.000Z,55.1
2023-07-23T10:11:04.000Z,55
2023-07-23T10:12:21.000Z,54.6
2023-07-23T10:13:38.000Z,54.7
2023-07-23T10:14:55.148Z,54.6
2023-07-23T10:16:11.818Z,54.6
2023-07-23T10:17:29.311Z,54.6
2023-07-23T10:18:46.392Z,54.6
2023-07-23T10:20:03.480Z,54.6
2023-07-23T10:21:20.566Z,54.6
2023-07-23T10:22:37.659Z,54.6
2023-07-23T10:23:54.750Z,54.7
2023-07-23T10:25:11.000Z,54.7
2023-07-23T10:26:28.512Z,54.6
2023-07-23T10:27:46.008Z,54.6
2023-07-23T10:29:03.099Z,54.8
2023-07-23T10:30:19.778Z,54.9
2023-07-23T10:31:37.000Z,54.9
2023-07-23T10:32:54.000Z,55
2023-07-23T10:34:11.446Z,54.9
2023-07-23T10:35:28.529Z,54.9
2023-07-23T10:36:45.617Z,54.9
2023-07-23T10:38:02.693Z,54.9
2023-07-23T10:39:19.773Z,54.9
2023-07-23T10:40:36.445Z,55
2023-07-23T10:41:53.936Z,55
2023-07-23T10:43:10.607Z,54.9
2023-07-23T10:44:28.105Z,54.9
2023-07-23T10:45:45.193Z,54.8
2023-07-23T10:47:01.866Z,54.8
2023-07-23T10:48:19.351Z,54.8
2023-07-23T10:49:36.433Z,54.7
2023-07-23T10:50:53.585Z,54.5
2023-07-23T10:52:09.000Z,54.1
2023-07-23T10:53:26.824Z,54
2023-07-23T10:54:44.000Z,54.1
2023-07-23T10:56:01.000Z,54.2
2023-07-23T10:57:18.073Z,54.2
2023-07-23T10:58:35.154Z,54.2
2023-07-23T10:59:52.235Z,54.1
2023-07-23T11:01:09.308Z,54.2
2023-07-23T11:02:26.405Z,54.2
2023-07-23T11:03:43.493Z,54.2
2023-07-23T11:05:00.587Z,54.1
2023-07-23T11:06:17.679Z,54.1
2023-07-23T11:07:34.773Z,54.1
2023-07-23T11:08:51.420Z,54
2023-07-23T11:10:09.000Z,54.1
2023-07-23T11:11:26.067Z,54.2
2023-07-23T11:12:43.163Z,54.2
2023-07-23T11:14:00.258Z,54.3
2023-07-23T11:15:17.352Z,54.1
2023-07-23T11:16:33.990Z,54.3
2023-07-23T11:17:51.531Z,54.1
2023-07-23T11:19:08.628Z,54.1
2023-07-23T11:20:25.265Z,54
2023-07-23T11:21:42.356Z,54
2023-07-23T11:22:59.444Z,54.1
2023-07-23T11:24:17.071Z,54.1
2023-07-23T11:25:33.000Z,54.1
2023-07-23T11:26:50.337Z,54.2
2023-07-23T11:28:07.000Z,54
2023-07-23T11:29:24.535Z,54
2023-07-23T11:30:41.000Z,54
2023-07-23T11:31:58.717Z,53.9
2023-07-23T11:33:15.803Z,53.8
2023-07-23T11:34:33.000Z,53.6
2023-07-23T11:35:50.000Z,53.9
2023-07-23T11:37:06.636Z,53.9
2023-07-23T11:38:23.721Z,54
2023-07-23T11:39:41.000Z,54
2023-07-23T11:40:58.367Z,54
2023-07-23T11:42:14.491Z,54
2023-07-23T11:43:31.590Z,54
2023-07-23T11:44:48.683Z,54
2023-07-23T11:46:05.781Z,54.1
2023-07-23T11:47:22.877Z,54
2023-07-23T11:48:39.524Z,54
2023-07-23T11:49:57.000Z,53.8
2023-07-23T11:51:14.182Z,53.8
2023-07-23T11:52:31.275Z,53.6
2023-07-23T11:53:48.375Z,53.6
2023-07-23T11:55:05.475Z,53.6
2023-07-23T11:56:22.565Z,53.6
2023-07-23T11:57:39.656Z,53.5
2023-07-23T11:58:56.763Z,53.5
2023-07-23T12:00:13.396Z,53.4
2023-07-23T12:01:31.000Z,53.4
2023-07-23T12:02:48.045Z,53.5
2023-07-23T12:04:05.141Z,53.4
2023-07-23T12:05:22.238Z,53.4
2023-07-23T12:06:39.000Z,53.4
2023-07-23T12:07:56.000Z,53.4
2023-07-23T12:09:13.518Z,53.5
2023-07-23T12:10:30.000Z,53.5
2023-07-23T12:11:47.000Z,53.5
2023-07-23T12:13:04.000Z,53.4
2023-07-23T12:14:22.000Z,53.4
2023-07-23T12:15:37.678Z,53.5
2023-07-23T12:16:55.000Z,53.5
2023-07-23T12:18:12.000Z,53.4
2023-07-23T12:19:29.428Z,53.4
2023-07-23T12:20:46.518Z,53.4
2023-07-23T12:22:03.612Z,53.3
2023-07-23T12:23:20.252Z,53.4
2023-07-23T12:24:37.797Z,53.2
2023-07-23T12:25:54.902Z,53.3
2023-07-23T12:27:12.000Z,53.3
2023-07-23T15:45:36.458Z,52.1
2023-07-23T15:55:52.266Z,52.1
2023-07-23T16:06:09.000Z,52
2023-07-23T16:16:25.727Z,52
2023-07-23T16:26:42.448Z,52
2023-07-23T16:33:57.806Z,52.1
2023-07-23T16:39:14.603Z,52
2023-07-23T16:49:27.461Z,52.1
2023-07-23T16:59:40.740Z,52.2
2023-07-23T17:09:54.961Z,52.3
2023-07-23T17:13:00.823Z,52.3
2023-07-23T17:24:41.919Z,52.4
2023-07-23T17:36:19.799Z,52.6
2023-07-23T17:48:17.530Z,52.7
2023-07-23T17:53:44.553Z,52.9
2023-07-23T18:01:39.000Z,53
2023-07-23T18:11:49.000Z,53.2
2023-07-23T18:18:33.171Z,52.6
2023-07-23T18:22:29.037Z,53.4
2023-07-23T18:32:40.072Z,53.6
2023-07-23T18:43:09.686Z,53.2
2023-07-23T18:53:18.565Z,53.2
2023-07-23T19:03:28.358Z,53.3
2023-07-23T19:13:38.137Z,53.3
2023-07-23T19:23:47.407Z,53.2
2023-07-23T19:32:06.000Z,53.3
2023-07-23T19:42:14.922Z,53.5
2023-07-23T19:51:20.200Z,55.2
2023-07-23T20:01:30.339Z,55.7
2023-07-23T20:11:39.479Z,55
2023-07-23T20:21:48.044Z,54.4
2023-07-23T20:31:57.679Z,54
2023-07-23T20:42:06.788Z,53.6
2023-07-23T20:50:01.747Z,53.4
2023-07-23T20:52:10.928Z,53.2
2023-07-23T20:54:20.521Z,53.2
2023-07-23T20:56:31.000Z,53
2023-07-23T20:58:58.000Z,53
2023-07-23T21:01:07.054Z,53
2023-07-23T21:03:17.693Z,53
2023-07-23T21:07:04.000Z,52.9
2023-07-23T21:09:13.000Z,52.9
2023-07-23T21:11:23.285Z,52.9
2023-07-23T21:13:32.872Z,51.2
2023-07-23T21:15:42.994Z,51.9
2023-07-23T21:17:53.636Z,52.4
2023-07-23T21:20:03.211Z,52.6
2023-07-23T21:22:13.840Z,52.7
2023-07-23T21:24:23.415Z,52.7
2023-07-23T21:26:33.508Z,52.7
2023-07-23T21:28:28.882Z,52.7
2023-07-23T21:30:38.000Z,52.8
2023-07-23T21:32:47.267Z,52.6
2023-07-23T21:34:56.000Z,52.7
2023-07-23T21:37:51.443Z,52.6
2023-07-23T21:42:13.113Z,52.6
2023-07-23T21:44:22.281Z,52.7
2023-07-23T21:46:32.000Z,52.8
2023-07-23T21:48:42.504Z,52.7
2023-07-23T21:50:52.000Z,52.7
2023-07-23T21:53:02.000Z,52.7
2023-07-23T21:55:12.824Z,52.7
2023-07-23T21:57:22.943Z,52.6
2023-07-23T21:59:33.061Z,52.6
2023-07-23T22:04:09.519Z,52.4
2023-07-23T22:06:18.689Z,52.3
2023-07-23T22:08:27.839Z,52.2
2023-07-23T22:10:37.969Z,52.1
2023-07-23T22:12:48.107Z,51.9
2023-07-23T22:14:57.734Z,51.9
2023-07-23T22:19:48.000Z,51.7
2023-07-23T22:21:57.957Z,51.6
2023-07-23T22:24:07.147Z,51.5
2023-07-23T22:26:17.000Z,51.3
2023-07-23T22:28:26.415Z,51.3
2023-07-23T22:30:36.529Z,51.2
2023-07-23T22:32:46.649Z,51.2
2023-07-23T22:34:56.753Z,51.1
2023-07-23T22:37:06.864Z,51.1
2023-07-23T22:39:16.984Z,50.9
2023-07-23T22:41:27.104Z,50.9
2023-07-23T22:43:37.218Z,50.8
2023-07-23T22:45:47.329Z,50.9
2023-07-23T22:47:57.438Z,50.9
2023-07-23T22:50:07.533Z,50.7
2023-07-23T22:52:17.644Z,50.7
2023-07-23T22:54:27.000Z,50.5
2023-07-23T22:56:37.860Z,50.5
2023-07-23T22:58:47.967Z,50.4
2023-07-23T23:00:58.000Z,50.2
2023-07-23T23:03:07.685Z,50.2
2023-07-23T23:05:18.330Z,50.2
2023-07-23T23:07:28.453Z,50.1
2023-07-23T23:09:38.000Z,50.1
2023-07-23T23:11:48.676Z,49.9
2023-07-23T23:13:58.804Z,50
2023-07-23T23:16:04.000Z,50
2023-07-23T23:18:14.016Z,49.9
2023-07-23T23:20:23.771Z,50
2023-07-23T23:25:11.489Z,49.8
2023-07-23T23:27:21.000Z,49.9
2023-07-23T23:29:31.000Z,49.9
2023-07-23T23:31:41.397Z,49.8
2023-07-23T23:33:51.500Z,49.7
2023-07-23T23:36:01.608Z,49.4
2023-07-23T23:38:11.706Z,48.8
2023-07-23T23:40:21.815Z,49
2023-07-23T23:42:32.000Z,49.1
2023-07-23T23:44:42.000Z,49
2023-07-23T23:46:52.151Z,48.8
